Time;durP1;ratioP1;P1;durP2;ratioP2;P2;SDS_P1;SDS_P2;PMS_P1;PMS_P2;Temp;Humidity;BMP_temperature;BMP_pressure;BME280_temperature;BME280_humidity;BME280_pressure;Samples;Min_cycle;Max_cycle;Signal;HPM_P1;HPM_P2
2021/08/07 00:02:23;;;;;;;2.45;2.13;;;12.70;99.90;;;;;;4934971;29;20048;-90
2021/08/07 00:04:51;;;;;;;4.47;2.10;;;12.70;99.90;;;;;;4933051;28;20402;-90
2021/08/07 00:07:19;;;;;;;3.58;2.65;;;12.70;99.90;;;;;;4934249;28;20112;-90
2021/08/07 00:09:46;;;;;;;2.53;2.08;;;12.80;99.90;;;;;;4934315;29;20050;-90
2021/08/07 00:12:14;;;;;;;2.38;2.15;;;12.80;99.90;;;;;;4933270;28;20047;-90
2021/08/07 00:14:42;;;;;;;2.40;2.20;;;12.80;99.90;;;;;;4936342;29;20051;-87
2021/08/07 00:17:10;;;;;;;3.38;3.08;;;12.80;99.90;;;;;;4934138;29;20044;-87
2021/08/07 00:19:37;;;;;;;1.80;1.55;;;12.80;99.90;;;;;;4952074;28;20054;-88
2021/08/07 00:22:05;;;;;;;3.40;2.85;;;12.70;99.90;;;;;;4955390;29;20058;-88
2021/08/07 00:24:33;;;;;;;2.67;2.35;;;12.60;99.90;;;;;;4955018;28;20515;-88
2021/08/07 00:27:01;;;;;;;8.93;2.67;;;12.60;99.90;;;;;;4954728;28;20058;-89
2021/08/07 00:29:34;;;;;;;2.15;1.80;;;12.60;99.90;;;;;;4954942;29;20055;-88
2021/08/07 00:32:03;;;;;;;2.35;2.15;;;12.60;99.90;;;;;;4953117;28;20051;-87
2021/08/07 00:34:32;;;;;;;2.22;1.80;;;12.60;99.90;;;;;;4952688;29;20413;-90
2021/08/07 00:37:05;;;;;;;2.45;2.25;;;12.60;99.90;;;;;;4952621;28;20050;-90
2021/08/07 00:39:36;;;;;;;2.85;2.20;;;12.50;99.90;;;;;;4935832;28;20047;-90
2021/08/07 00:42:08;;;;;;;2.03;1.67;;;12.40;99.90;;;;;;4923333;29;20051;-90
2021/08/07 00:44:37;;;;;;;2.45;2.15;;;12.40;99.90;;;;;;4932497;29;20044;-90
2021/08/07 00:47:05;;;;;;;2.88;2.35;;;12.40;99.90;;;;;;4932206;28;20055;-89
2021/08/07 00:49:33;;;;;;;11.13;4.70;;;12.40;99.90;;;;;;4929503;29;20048;-91
2021/08/07 00:52:02;;;;;;;2.10;1.90;;;12.40;99.90;;;;;;4912998;29;20402;-90
2021/08/07 00:54:34;;;;;;;1.42;1.33;;;12.40;99.90;;;;;;4913981;29;20059;-90
2021/08/07 00:57:09;;;;;;;3.38;2.20;;;12.40;99.90;;;;;;4912631;29;20040;-90
2021/08/07 00:59:39;;;;;;;2.05;1.77;;;12.30;99.90;;;;;;4913400;29;20059;-90
2021/08/07 01:02:18;;;;;;;2.20;1.98;;;12.20;99.90;;;;;;4913597;29;20044;-89
2021/08/07 01:05:09;;;;;;;3.30;2.80;;;12.30;99.90;;;;;;4912894;29;20052;-90
2021/08/07 01:07:37;;;;;;;3.13;1.92;;;12.20;99.90;;;;;;4913182;29;20039;-90
2021/08/07 01:10:41;;;;;;;21.75;3.78;;;12.20;99.90;;;;;;4913545;29;20048;-90
2021/08/07 01:13:25;;;;;;;4.80;2.55;;;12.30;99.90;;;;;;4877310;29;20060;-90
2021/08/07 01:16:07;;;;;;;2.15;1.77;;;12.30;99.90;;;;;;4944197;29;20054;-90
2021/08/07 01:18:38;;;;;;;2.20;1.80;;;12.30;99.90;;;;;;4949550;28;20065;-90
2021/08/07 01:21:10;;;;;;;3.15;2.53;;;12.30;99.90;;;;;;4970875;28;20404;-90
2021/08/07 01:23:51;;;;;;;3.17;2.28;;;12.30;99.90;;;;;;4974522;28;20038;-89
2021/08/07 01:26:46;;;;;;;5.10;4.22;;;12.40;99.90;;;;;;4974482;28;20043;-90
2021/08/07 01:29:20;;;;;;;6.85;2.65;;;12.40;99.90;;;;;;4973534;28;20487;-90
2021/08/07 01:31:55;;;;;;;2.53;2.17;;;12.50;99.90;;;;;;4974461;28;20047;-90
2021/08/07 01:34:43;;;;;;;5.60;2.38;;;12.50;99.90;;;;;;4952980;28;20052;-90
2021/08/07 01:37:19;;;;;;;3.72;2.30;;;12.50;99.90;;;;;;4936470;29;20048;-90
2021/08/07 01:40:13;;;;;;;2.88;1.88;;;12.50;99.90;;;;;;4934175;28;20055;-90
2021/08/07 01:42:52;;;;;;;2.35;2.15;;;12.50;99.90;;;;;;4940573;28;20066;-90
2021/08/07 01:45:23;;;;;;;;;;;12.60;99.90;;;;;;4955901;29;20397;-90
2021/08/07 01:48:01;;;;;;;3.30;2.10;;;12.60;99.90;;;;;;4955038;28;20292;-91
2021/08/07 01:50:44;;;;;;;5.90;3.13;;;12.50;99.90;;;;;;4955085;29;20082;-90
2021/08/07 01:53:18;;;;;;;2.58;2.38;;;12.40;99.90;;;;;;4954005;29;20062;-90
2021/08/07 01:55:57;;;;;;;3.28;2.30;;;12.40;99.90;;;;;;4945871;28;20059;-91
2021/08/07 01:58:32;;;;;;;4.80;3.63;;;12.40;99.90;;;;;;4935355;29;20055;-90
2021/08/07 02:01:01;;;;;;;2.53;2.33;;;12.40;99.90;;;;;;4935168;28;20048;-89
2021/08/07 02:03:40;;;;;;;5.90;3.08;;;12.40;99.90;;;;;;4904997;29;20516;-89
2021/08/07 02:06:09;;;;;;;;;;;12.50;99.90;;;;;;4920369;29;20502;-90
2021/08/07 02:08:40;;;;;;;4.20;3.70;;;12.50;99.90;;;;;;4935532;28;20265;-89
2021/08/07 02:11:13;;;;;;;4.85;2.92;;;12.60;99.90;;;;;;4919135;29;20058;-90
2021/08/07 02:13:43;;;;;;;2.65;2.45;;;12.70;99.90;;;;;;4919977;29;20067;-90
2021/08/07 02:16:18;;;;;;;3.53;3.22;;;12.70;99.90;;;;;;4919228;29;20063;-90
2021/08/07 02:18:49;;;;;;;3.92;3.33;;;12.80;99.90;;;;;;4944729;28;20508;-90
2021/08/07 02:21:20;;;;;;;4.03;2.83;;;12.80;99.90;;;;;;4938866;29;20051;-90
2021/08/07 02:23:49;;;;;;;3.83;2.20;;;12.80;99.90;;;;;;4954652;28;20050;-90
2021/08/07 02:26:24;;;;;;;3.05;2.65;;;12.80;99.90;;;;;;4937922;29;20055;-90
2021/08/07 02:29:12;;;;;;;2.72;2.53;;;12.80;99.90;;;;;;4973793;28;20058;-89
2021/08/07 02:31:53;;;;;;;3.50;2.38;;;12.80;99.90;;;;;;4956435;28;20061;-89
2021/08/07 02:34:22;;;;;;;2.53;2.25;;;12.80;99.90;;;;;;4973842;28;20057;-91
2021/08/07 02:36:52;;;;;;;2.95;2.35;;;12.70;99.90;;;;;;4972902;28;20054;-90
2021/08/07 02:39:26;;;;;;;3.63;2.75;;;12.70;99.90;;;;;;4957364;28;20070;-90
2021/08/07 02:41:56;;;;;;;2.88;2.67;;;12.70;99.90;;;;;;4962438;28;20051;-90
2021/08/07 02:44:27;;;;;;;3.63;3.05;;;12.80;99.90;;;;;;4954070;28;20066;-89
2021/08/07 02:46:55;;;;;;;4.57;4.20;;;12.80;99.90;;;;;;4953942;28;20782;-90
2021/08/07 02:49:25;;;;;;;2.42;2.20;;;12.80;99.90;;;;;;4934811;29;20047;-89
2021/08/07 02:51:54;;;;;;;4.70;3.15;;;12.70;99.90;;;;;;4934597;29;20055;-90
2021/08/07 02:54:22;;;;;;;3.75;2.20;;;12.60;99.90;;;;;;4935016;29;20051;-90
2021/08/07 02:56:50;;;;;;;3.78;2.80;;;12.60;99.90;;;;;;4933816;29;20055;-90
2021/08/07 02:59:20;;;;;;;3.10;2.65;;;12.60;99.90;;;;;;4934367;28;20121;-89
2021/08/07 03:01:49;;;;;;;9.80;3.83;;;12.60;99.90;;;;;;4950209;29;20051;-90
2021/08/07 03:04:18;;;;;;;3.40;3.10;;;12.60;99.90;;;;;;4922150;29;20059;-89
2021/08/07 03:06:46;;;;;;;10.68;5.70;;;12.60;99.90;;;;;;4915107;28;20048;-91
2021/08/07 03:09:16;;;;;;;6.55;3.65;;;12.60;99.90;;;;;;4915796;29;20044;-90
2021/08/07 03:11:49;;;;;;;4.35;2.92;;;12.60;99.90;;;;;;4898270;29;20047;-90
2021/08/07 03:14:19;;;;;;;2.38;2.13;;;12.50;99.90;;;;;;4915428;29;20040;-90
2021/08/07 03:16:47;;;;;;;2.72;2.40;;;12.50;99.90;;;;;;4923037;29;20036;-90
2021/08/07 03:19:19;;;;;;;3.53;2.60;;;12.50;99.90;;;;;;4953220;28;20806;-90
2021/08/07 03:21:50;;;;;;;6.90;4.97;;;12.60;99.90;;;;;;4953713;29;20051;-90
2021/08/07 03:24:20;;;;;;;3.10;2.75;;;12.60;99.90;;;;;;4953361;28;20050;-91
2021/08/07 03:26:50;;;;;;;3.40;3.17;;;12.70;99.90;;;;;;4952321;28;20070;-90
2021/08/07 03:29:20;;;;;;;3.83;2.30;;;12.70;99.90;;;;;;4953679;29;20082;-90
2021/08/07 03:31:50;;;;;;;2.53;2.33;;;12.70;99.90;;;;;;4953018;29;20047;-90
2021/08/07 03:34:25;;;;;;;10.55;3.33;;;12.70;99.90;;;;;;4918872;29;20048;-90
2021/08/07 03:36:54;;;;;;;2.90;2.63;;;12.70;99.90;;;;;;4914657;29;20507;-90
2021/08/07 03:39:22;;;;;;;3.25;2.67;;;12.70;99.90;;;;;;4914280;29;20059;-90
2021/08/07 03:41:52;;;;;;;3.38;2.60;;;12.70;99.90;;;;;;4924794;29;20383;-90
2021/08/07 03:44:20;;;;;;;4.47;2.67;;;12.70;99.90;;;;;;4932633;29;20066;-90
2021/08/07 03:46:50;;;;;;;5.45;3.75;;;12.70;99.90;;;;;;4933480;28;20052;-90
2021/08/07 03:49:17;;;;;;;3.63;3.25;;;12.60;99.90;;;;;;4918185;29;20051;-90
2021/08/07 03:51:47;;;;;;;4.93;2.88;;;12.60;99.90;;;;;;4917145;29;20051;-90
2021/08/07 03:54:18;;;;;;;3.93;3.57;;;12.60;99.90;;;;;;4933724;29;20048;-90
2021/08/07 03:56:46;;;;;;;5.30;3.38;;;12.60;99.90;;;;;;4932754;29;20654;-90
2021/08/07 03:59:13;;;;;;;3.67;3.30;;;12.60;99.90;;;;;;4934339;28;20067;-90
2021/08/07 04:01:42;;;;;;;3.20;2.90;;;12.70;99.90;;;;;;4933608;29;20066;-90
2021/08/07 04:04:16;;;;;;;4.20;3.42;;;12.70;99.90;;;;;;4932807;29;20055;-90
2021/08/07 04:06:46;;;;;;;2.65;2.45;;;12.70;99.90;;;;;;4932882;28;20062;-90
2021/08/07 04:09:23;;;;;;;3.17;2.58;;;12.60;99.90;;;;;;4933975;29;20433;-91
2021/08/07 04:11:53;;;;;;;2.78;2.45;;;12.50;99.90;;;;;;4932345;29;20718;-90
2021/08/07 04:14:20;;;;;;;3.78;2.75;;;12.50;99.90;;;;;;4934896;29;20055;-89
2021/08/07 04:16:49;;;;;;;12.05;3.72;;;12.60;99.90;;;;;;4917129;29;20390;-89
2021/08/07 04:19:29;;;;;;;3.25;2.97;;;12.60;99.90;;;;;;4932493;29;20054;-90
2021/08/07 04:22:05;;;;;;;3.92;2.20;;;12.60;99.90;;;;;;4935879;29;20055;-90
2021/08/07 04:24:39;;;;;;;2.70;2.35;;;12.60;99.90;;;;;;4952084;28;20428;-90
2021/08/07 04:27:08;;;;;;;4.50;2.97;;;12.60;99.90;;;;;;4952448;28;20043;-90
2021/08/07 04:29:36;;;;;;;3.00;2.78;;;12.70;99.90;;;;;;4952050;29;20055;-90
2021/08/07 04:32:04;;;;;;;5.70;3.55;;;12.70;99.90;;;;;;4951822;28;20058;-89
2021/08/07 04:34:32;;;;;;;3.45;3.05;;;12.80;99.90;;;;;;4952338;29;20055;-90
2021/08/07 04:37:02;;;;;;;3.03;2.67;;;12.80;99.90;;;;;;4951016;28;20039;-90
2021/08/07 04:39:32;;;;;;;2.53;2.33;;;12.90;99.90;;;;;;4935596;29;20051;-90
2021/08/07 04:42:03;;;;;;;5.40;3.58;;;12.90;99.90;;;;;;4925557;29;20055;-86
2021/08/07 04:44:34;;;;;;;4.32;3.15;;;12.90;99.90;;;;;;4917179;29;20048;-90
2021/08/07 04:47:03;;;;;;;3.90;3.55;;;12.90;99.90;;;;;;4932404;28;20054;-90
2021/08/07 04:49:31;;;;;;;2.80;2.58;;;13.10;99.90;;;;;;4914265;29;20051;-90
2021/08/07 04:52:01;;;;;;;3.70;3.15;;;13.10;99.90;;;;;;4897869;29;20048;-90
2021/08/07 04:54:31;;;;;;;3.83;3.13;;;13.20;99.90;;;;;;4913459;29;20044;-90
2021/08/07 04:57:00;;;;;;;4.88;4.15;;;13.20;99.90;;;;;;4897496;29;20048;-90
2021/08/07 04:59:28;;;;;;;3.58;2.53;;;13.20;99.90;;;;;;4913454;29;20048;-90
2021/08/07 05:01:57;;;;;;;2.63;2.42;;;13.30;99.90;;;;;;4898410;29;20052;-90
2021/08/07 05:04:25;;;;;;;3.05;2.83;;;13.40;99.90;;;;;;4913445;29;20048;-90
2021/08/07 05:06:53;;;;;;;3.08;2.85;;;13.40;99.90;;;;;;4914148;29;20071;-90
2021/08/07 05:09:21;;;;;;;3.95;2.75;;;13.40;99.90;;;;;;4915253;29;20052;-90
2021/08/07 05:12:07;;;;;;;4.43;3.90;;;13.50;99.90;;;;;;4923890;29;20040;-90
2021/08/07 05:14:39;;;;;;;7.45;3.95;;;13.50;99.90;;;;;;4932707;29;20405;-90
2021/08/07 05:17:08;;;;;;;3.70;3.33;;;13.60;99.90;;;;;;4932054;29;20048;-90
2021/08/07 05:19:36;;;;;;;3.63;3.15;;;13.70;99.90;;;;;;4947929;28;20511;-90
2021/08/07 05:22:04;;;;;;;10.80;3.55;;;13.80;99.90;;;;;;4951284;29;20051;-90
2021/08/07 05:24:32;;;;;;;4.25;3.13;;;13.80;99.90;;;;;;4935253;29;20047;-90
2021/08/07 05:27:00;;;;;;;5.00;3.03;;;14.00;99.90;;;;;;4951038;28;20059;-91
2021/08/07 05:29:28;;;;;;;3.60;3.15;;;14.00;99.90;;;;;;4951692;29;20063;-90
2021/08/07 05:31:56;;;;;;;3.25;2.92;;;14.10;99.90;;;;;;4935105;29;20082;-90
2021/08/07 05:34:24;;;;;;;3.55;3.17;;;14.10;99.90;;;;;;4904163;29;20047;-90
2021/08/07 05:36:51;;;;;;;5.05;2.83;;;14.10;99.90;;;;;;4907300;29;20048;-90
2021/08/07 05:39:21;;;;;;;3.03;2.72;;;14.20;99.90;;;;;;4916214;29;20048;-90
2021/08/07 05:41:50;;;;;;;3.50;3.20;;;14.20;99.90;;;;;;4915804;29;20397;-90
2021/08/07 05:44:18;;;;;;;3.70;3.38;;;14.20;99.90;;;;;;4931856;29;20047;-89
2021/08/07 05:46:46;;;;;;;2.97;2.72;;;14.30;99.90;;;;;;4933046;28;20063;-80
2021/08/07 05:49:14;;;;;;;6.80;3.80;;;14.40;99.90;;;;;;4933855;29;20043;-91
2021/08/07 05:51:43;;;;;;;5.95;4.00;;;14.40;99.90;;;;;;4933096;28;20048;-90
2021/08/07 05:54:12;;;;;;;8.15;5.32;;;14.50;99.90;;;;;;4933824;29;20055;-90
2021/08/07 05:56:40;;;;;;;5.63;3.63;;;14.60;99.90;;;;;;4930640;29;20497;-90
2021/08/07 05:59:08;;;;;;;3.60;3.10;;;14.60;99.90;;;;;;4916055;28;20862;-82
2021/08/07 06:01:36;;;;;;;30.98;6.65;;;14.70;99.90;;;;;;4931947;29;20485;-82
2021/08/07 06:04:05;;;;;;;4.25;3.85;;;14.70;99.90;;;;;;4916021;29;20048;-82
2021/08/07 06:06:33;;;;;;;5.70;3.67;;;14.90;99.90;;;;;;4931768;29;20462;-90
2021/08/07 06:09:01;;;;;;;6.13;5.63;;;15.00;99.90;;;;;;4904263;29;20527;-91
2021/08/07 06:11:30;;;;;;;11.50;4.55;;;15.20;99.90;;;;;;4918333;29;20044;-91
2021/08/07 06:13:58;;;;;;;4.32;3.92;;;15.40;99.90;;;;;;4919805;29;20401;-81
2021/08/07 06:16:27;;;;;;;4.70;4.30;;;15.80;99.90;;;;;;4919112;29;20043;-81
2021/08/07 06:18:55;;;;;;;6.80;4.63;;;16.10;99.90;;;;;;4919374;28;20385;-91
2021/08/07 06:21:23;;;;;;;5.28;4.85;;;16.20;99.90;;;;;;4934951;29;20047;-91
2021/08/07 06:23:51;;;;;;;5.43;4.70;;;16.40;99.90;;;;;;4935105;29;20047;-91
2021/08/07 06:26:19;;;;;;;8.02;6.13;;;16.70;99.90;;;;;;4919063;29;20051;-92
2021/08/07 06:28:47;;;;;;;19.58;8.25;;;17.00;99.90;;;;;;4919096;29;20066;-81
2021/08/07 06:31:15;;;;;;;6.95;5.82;;;17.30;99.90;;;;;;4919010;29;20492;-81
2021/08/07 06:33:44;;;;;;;4.90;4.30;;;17.50;99.90;;;;;;4919759;29;20059;-81
2021/08/07 06:36:12;;;;;;;4.97;4.32;;;17.60;99.90;;;;;;4945632;29;20048;-81
2021/08/07 06:38:41;;;;;;;5.53;5.03;;;17.80;99.90;;;;;;4953853;29;20054;-81
2021/08/07 06:41:09;;;;;;;5.32;3.78;;;17.70;99.90;;;;;;4952819;28;20043;-81
2021/08/07 06:43:54;;;;;;;5.68;3.65;;;17.60;99.90;;;;;;4953891;28;20046;-81
2021/08/07 06:46:32;;;;;;;5.28;3.90;;;17.70;99.90;;;;;;4954156;29;20412;-81
2021/08/07 06:49:00;;;;;;;4.43;2.90;;;17.90;99.90;;;;;;4950324;28;20051;-81
2021/08/07 06:51:28;;;;;;;4.47;3.72;;;17.90;99.90;;;;;;4933926;29;20503;-81
2021/08/07 06:53:57;;;;;;;4.07;3.50;;;17.80;99.90;;;;;;4950726;29;20047;-81
2021/08/07 06:56:26;;;;;;;3.05;2.75;;;17.90;99.90;;;;;;4949532;28;20052;-82
2021/08/07 06:58:53;;;;;;;17.38;2.95;;;18.00;99.90;;;;;;4935621;28;20605;-81
2021/08/07 07:01:22;;;;;;;4.72;4.25;;;18.10;99.90;;;;;;4934344;29;20397;-81
2021/08/07 07:03:52;;;;;;;3.33;3.03;;;18.20;99.90;;;;;;4934686;29;20052;-90
2021/08/07 07:06:20;;;;;;;8.27;2.85;;;18.20;99.90;;;;;;4935728;29;20055;-81
2021/08/07 07:08:50;;;;;;;4.88;3.53;;;18.30;99.90;;;;;;4934038;28;20378;-81
2021/08/07 07:11:19;;;;;;;5.97;4.47;;;18.40;99.90;;;;;;4938649;29;20035;-81
2021/08/07 07:13:54;;;;;;;2.92;2.72;;;18.50;99.90;;;;;;4953593;29;20054;-81
2021/08/07 07:16:37;;;;;;;5.13;2.90;;;18.40;99.90;;;;;;4958325;28;20038;-81
2021/08/07 07:19:05;;;;;;;3.13;2.40;;;18.30;99.90;;;;;;4940236;28;20062;-81
2021/08/07 07:21:33;;;;;;;3.58;3.28;;;18.70;99.90;;;;;;4956032;28;20054;-82
2021/08/07 07:24:01;;;;;;;9.57;2.72;;;19.10;99.90;;;;;;4972228;28;20049;-81
2021/08/07 07:26:30;;;;;;;2.92;2.15;;;19.20;99.90;;;;;;4971615;28;20046;-81
2021/08/07 07:29:00;;;;;;;2.72;2.53;;;19.30;99.90;;;;;;4971648;28;20046;-81
2021/08/07 07:31:29;;;;;;;4.05;3.00;;;19.50;99.90;;;;;;4971870;28;20058;-81
2021/08/07 07:33:58;;;;;;;5.55;3.00;;;19.50;99.90;;;;;;4959528;28;20050;-81
2021/08/07 07:36:28;;;;;;;3.70;2.38;;;19.40;99.90;;;;;;4936472;29;20047;-81
2021/08/07 07:38:56;;;;;;;3.35;2.17;;;19.50;99.90;;;;;;4944011;28;20047;-81
2021/08/07 07:41:24;;;;;;;2.53;2.33;;;19.70;99.90;;;;;;4952080;29;20047;-81
2021/08/07 07:43:52;;;;;;;16.73;2.95;;;20.00;99.90;;;;;;4952543;28;20044;-82
2021/08/07 07:46:20;;;;;;;2.25;1.80;;;20.20;99.90;;;;;;4953023;29;20511;-84
2021/08/07 07:48:48;;;;;;;3.72;1.88;;;20.40;99.90;;;;;;4936229;28;20452;-82
2021/08/07 07:51:17;;;;;;;3.03;2.22;;;20.40;99.90;;;;;;4935472;29;20043;-81
2021/08/07 07:53:44;;;;;;;1.83;1.73;;;20.50;99.90;;;;;;4952561;29;20047;-82
2021/08/07 07:56:12;;;;;;;2.47;1.77;;;20.60;99.90;;;;;;4935163;29;20050;-81
2021/08/07 07:58:42;;;;;;;2.03;1.60;;;20.70;99.90;;;;;;4952474;29;20063;-81
2021/08/07 08:01:10;;;;;;;2.00;1.77;;;20.70;99.90;;;;;;4935428;29;20059;-81
2021/08/07 08:03:38;;;;;;;2.17;1.98;;;20.50;99.90;;;;;;4936694;29;20047;-82
2021/08/07 08:06:07;;;;;;;3.45;2.10;;;20.40;99.90;;;;;;4948718;29;20052;-81
2021/08/07 08:08:35;;;;;;;2.35;1.92;;;20.50;99.90;;;;;;4948360;28;20416;-92
2021/08/07 08:11:04;;;;;;;2.00;1.60;;;20.70;99.90;;;;;;4948090;28;20437;-90
2021/08/07 08:13:34;;;;;;;2.22;2.00;;;20.80;99.90;;;;;;4935984;29;20055;-90
2021/08/07 08:16:02;;;;;;;1.92;1.50;;;20.90;99.90;;;;;;4934349;29;20058;-92
2021/08/07 08:18:32;;;;;;;2.78;1.58;;;20.70;99.90;;;;;;4933852;28;20082;-91
2021/08/07 08:21:01;;;;;;;3.90;2.50;;;20.80;99.90;;;;;;4971932;28;20054;-87
2021/08/07 08:23:29;;;;;;;1.55;1.45;;;20.80;99.90;;;;;;4971667;28;20050;-88
2021/08/07 08:25:57;;;;;;;2.88;1.60;;;20.90;99.90;;;;;;4971311;28;20392;-86
2021/08/07 08:28:25;;;;;;;2.67;2.00;;;20.90;99.90;;;;;;4970911;28;20046;-87
2021/08/07 08:30:53;;;;;;;2.03;1.70;;;21.00;99.90;;;;;;4970495;28;20054;-88
2021/08/07 08:33:22;;;;;;;2.20;1.90;;;21.00;99.90;;;;;;4972811;28;20411;-87
2021/08/07 08:35:50;;;;;;;5.75;2.13;;;21.20;99.90;;;;;;4938860;28;20042;-88
2021/08/07 08:38:19;;;;;;;1.77;1.67;;;21.30;99.90;;;;;;4971941;28;20062;-88
2021/08/07 08:40:47;;;;;;;1.88;1.58;;;21.40;99.90;;;;;;4968805;28;20054;-80
2021/08/07 08:43:16;;;;;;;2.05;1.88;;;21.30;99.90;;;;;;4951749;28;20040;-81
2021/08/07 08:45:45;;;;;;;3.90;1.67;;;21.30;99.90;;;;;;4951571;29;20384;-87
2021/08/07 08:48:16;;;;;;;3.53;3.23;;;21.30;99.90;;;;;;4951617;28;20514;-87
2021/08/07 08:50:47;;;;;;;2.35;2.00;;;21.30;99.90;;;;;;4948243;29;20288;-84
2021/08/07 08:53:16;;;;;;;2.03;1.90;;;21.30;99.90;;;;;;4933045;29;20433;-88
2021/08/07 08:55:44;;;;;;;3.35;1.40;;;21.50;99.90;;;;;;4916437;29;20047;-85
2021/08/07 08:58:15;;;;;;;1.92;1.60;;;21.50;99.90;;;;;;4932816;29;20058;-88
2021/08/07 09:00:45;;;;;;;1.80;1.13;;;21.60;99.90;;;;;;4931966;29;20109;-86
2021/08/07 09:03:13;;;;;;;3.38;1.75;;;21.70;99.90;;;;;;4933189;29;20485;-86
2021/08/07 09:05:41;;;;;;;2.40;1.30;;;21.70;99.90;;;;;;4933030;29;20125;-88
2021/08/07 09:08:09;;;;;;;3.63;1.45;;;21.70;99.90;;;;;;4933929;28;20052;-88
2021/08/07 09:10:38;;;;;;;12.52;3.60;;;21.70;99.90;;;;;;4916315;29;20776;-88
2021/08/07 09:13:20;;;;;;;2.13;1.30;;;21.80;99.90;;;;;;4935765;29;20043;-89
2021/08/07 09:15:50;;;;;;;2.17;1.88;;;21.90;99.90;;;;;;4935789;29;20043;-86
2021/08/07 09:18:25;;;;;;;2.80;1.58;;;21.80;99.90;;;;;;4955320;28;20392;-88
2021/08/07 09:21:17;;;;;;;2.85;0.80;;;21.70;99.90;;;;;;4969835;28;20054;-88
2021/08/07 09:24:08;;;;;;;2.80;1.90;;;21.80;99.90;;;;;;4970636;28;20054;-88
2021/08/07 09:27:03;;;;;;;2.47;1.80;;;21.80;99.90;;;;;;4970999;28;20396;-90
2021/08/07 09:29:38;;;;;;;1.75;1.60;;;21.70;99.90;;;;;;4969136;28;20047;-89
2021/08/07 09:32:07;;;;;;;2.40;1.45;;;21.80;99.90;;;;;;4959479;28;20528;-86
2021/08/07 09:34:35;;;;;;;3.17;1.30;;;21.70;99.90;;;;;;4933524;29;20058;-90
2021/08/07 09:37:04;;;;;;;2.80;1.75;;;21.50;99.90;;;;;;4916252;29;20055;-89
2021/08/07 09:39:45;;;;;;;1.20;1.10;;;21.50;99.90;;;;;;4931902;29;20047;-89
2021/08/07 09:42:28;;;;;;;11.85;3.13;;;21.60;99.90;;;;;;4917428;29;20486;-88
2021/08/07 09:45:01;;;;;;;5.93;2.00;;;21.80;99.90;;;;;;4935710;28;20051;-89
2021/08/07 09:47:33;;;;;;;1.40;1.30;;;21.80;99.90;;;;;;4935708;29;20051;-90
2021/08/07 09:50:01;;;;;;;1.60;1.50;;;21.80;99.90;;;;;;4920532;29;20533;-88
2021/08/07 09:52:36;;;;;;;1.45;1.35;;;21.90;99.90;;;;;;4936317;28;20082;-81
2021/08/07 09:55:04;;;;;;;1.85;1.75;;;21.90;99.90;;;;;;4936534;28;21488;-81
2021/08/07 09:57:33;;;;;;;1.80;1.45;;;21.80;99.90;;;;;;4934946;29;20055;-80
2021/08/07 10:00:04;;;;;;;1.75;1.20;;;21.80;99.90;;;;;;4935120;28;20484;-88
2021/08/07 10:02:42;;;;;;;2.47;1.30;;;21.90;99.90;;;;;;4936853;29;20048;-89
2021/08/07 10:05:24;;;;;;;1.77;1.67;;;21.90;99.90;;;;;;4918950;29;20051;-88
2021/08/07 10:08:05;;;;;;;;;;;22.10;99.90;;;;;;4935553;29;20408;-81
2021/08/07 10:10:42;;;;;;;2.15;1.95;;;22.10;99.90;;;;;;4934153;29;19931;-81
2021/08/07 10:13:12;;;;;;;2.22;2.03;;;21.90;99.90;;;;;;4935087;29;20051;-82
2021/08/07 10:16:01;;;;;;;1.40;1.30;;;21.80;99.90;;;;;;4935317;29;20048;-81
2021/08/07 10:18:32;;;;;;;3.92;2.65;;;21.70;99.90;;;;;;4932700;29;20436;-81
2021/08/07 10:21:04;;;;;;;1.83;1.73;;;21.50;99.90;;;;;;4953596;28;20056;-81
2021/08/07 10:23:33;;;;;;;2.05;1.35;;;21.40;99.90;;;;;;4953618;28;20043;-80
2021/08/07 10:26:02;;;;;;;2.65;1.60;;;21.30;99.90;;;;;;4953604;29;20051;-81
2021/08/07 10:28:34;;;;;;;1.58;1.48;;;21.30;99.90;;;;;;4953870;28;20407;-81
2021/08/07 10:31:03;;;;;;;1.45;1.33;;;21.50;99.90;;;;;;4954838;28;20066;-81
2021/08/07 10:33:35;;;;;;;2.33;2.10;;;21.60;99.90;;;;;;4954346;29;20520;-81
2021/08/07 10:36:04;;;;;;;2.05;1.90;;;21.80;99.90;;;;;;4953444;28;20062;-92
2021/08/07 10:38:34;;;;;;;1.95;1.75;;;22.10;99.90;;;;;;4954976;29;20607;-91
2021/08/07 10:41:02;;;;;;;;;;;22.40;99.90;;;;;;4951732;28;20048;-90
2021/08/07 10:43:36;;;;;;;4.75;2.33;;;22.60;99.90;;;;;;4936572;28;20376;-91
2021/08/07 10:46:05;;;;;;;2.05;1.40;;;22.90;99.90;;;;;;4934875;29;20054;-80
2021/08/07 10:48:38;;;;;;;2.55;2.35;;;22.90;99.90;;;;;;4918392;29;20058;-81
2021/08/07 10:51:22;;;;;;;3.00;1.38;;;22.90;99.90;;;;;;4915282;29;20394;-81
2021/08/07 10:53:55;;;;;;;3.42;1.98;;;22.90;99.90;;;;;;4916659;29;20040;-80
2021/08/07 10:56:28;;;;;;;6.35;1.35;;;22.80;99.90;;;;;;4915682;29;20078;-83
2021/08/07 10:58:58;;;;;;;1.60;1.50;;;22.80;99.90;;;;;;4916322;28;20056;-82
2021/08/07 11:01:27;;;;;;;1.70;1.60;;;22.70;99.90;;;;;;4915610;29;20410;-82
2021/08/07 11:04:02;;;;;;;2.33;1.80;;;22.80;99.90;;;;;;4930683;29;20052;-83
2021/08/07 11:06:39;;;;;;;2.00;1.35;;;22.70;99.90;;;;;;4916327;29;20056;-83
2021/08/07 11:09:25;;;;;;;3.35;1.95;;;22.60;99.90;;;;;;4916260;28;20052;-83
2021/08/07 11:12:05;;;;;;;3.55;1.88;;;22.70;99.90;;;;;;4924637;28;20055;-83
2021/08/07 11:14:42;;;;;;;2.00;1.40;;;22.60;99.90;;;;;;4935761;29;20048;-83
2021/08/07 11:17:10;;;;;;;2.42;2.22;;;22.70;99.90;;;;;;4934792;28;20417;-83
2021/08/07 11:19:55;;;;;;;2.33;2.10;;;22.80;99.90;;;;;;4951414;28;20416;-83
2021/08/07 11:22:41;;;;;;;1.58;1.48;;;22.90;99.90;;;;;;4954140;29;20063;-84
2021/08/07 11:25:17;;;;;;;6.78;2.30;;;22.80;99.90;;;;;;4954118;28;20404;-82
2021/08/07 11:27:59;;;;;;;2.58;2.38;;;22.60;99.90;;;;;;4953522;28;20074;-82
2021/08/07 11:30:27;;;;;;;1.98;1.77;;;22.70;99.90;;;;;;4954136;29;20051;-83
2021/08/07 11:33:10;;;;;;;2.50;2.30;;;22.90;99.90;;;;;;4945709;28;20059;-83
2021/08/07 11:35:38;;;;;;;2.65;2.40;;;23.00;99.90;;;;;;4934491;28;20043;-81
2021/08/07 11:38:09;;;;;;;5.78;3.25;;;23.00;99.90;;;;;;4935242;29;20064;-83
2021/08/07 11:40:38;;;;;;;2.08;1.50;;;23.00;99.90;;;;;;4933617;28;20062;-83
2021/08/07 11:43:21;;;;;;;3.63;2.38;;;23.00;99.90;;;;;;4914311;29;20052;-83
2021/08/07 11:45:57;;;;;;;3.08;2.00;;;23.00;99.90;;;;;;4915993;29;20052;-83
2021/08/07 11:48:44;;;;;;;2.78;2.47;;;23.00;99.90;;;;;;4915234;28;20055;-83
2021/08/07 11:51:14;;;;;;;2.40;2.20;;;23.00;99.90;;;;;;4914697;29;20056;-83
2021/08/07 11:53:44;;;;;;;2.10;1.73;;;23.10;99.90;;;;;;4915845;29;20063;-83
2021/08/07 11:56:16;;;;;;;4.87;2.53;;;23.00;99.90;;;;;;4914421;29;20292;-83
2021/08/07 11:58:46;;;;;;;2.10;1.90;;;23.10;99.90;;;;;;4915580;29;20312;-83
2021/08/07 12:01:16;;;;;;;2.72;2.53;;;23.20;99.90;;;;;;4913213;29;20071;-84
2021/08/07 12:03:47;;;;;;;1.75;1.65;;;23.40;99.90;;;;;;4914058;29;20043;-83
2021/08/07 12:06:17;;;;;;;2.95;2.53;;;23.20;99.90;;;;;;4914547;29;20118;-83
2021/08/07 12:08:46;;;;;;;3.47;1.73;;;23.00;99.90;;;;;;4915135;29;20052;-82
2021/08/07 12:11:16;;;;;;;2.65;2.45;;;23.00;99.90;;;;;;4918901;28;20276;-83
2021/08/07 12:13:54;;;;;;;3.37;2.70;;;23.10;99.90;;;;;;4933436;29;20070;-83
2021/08/07 12:16:29;;;;;;;2.22;2.03;;;23.20;99.90;;;;;;4933871;28;20291;-83
2021/08/07 12:19:00;;;;;;;5.28;3.25;;;23.40;99.90;;;;;;4934085;28;20397;-83
2021/08/07 12:21:54;;;;;;;;;;;23.40;99.90;;;;;;4933966;29;20047;-83
2021/08/07 12:24:23;;;;;;;3.63;2.50;;;23.40;99.90;;;;;;4931815;28;19934;-83
2021/08/07 12:26:54;;;;;;;1.85;1.75;;;23.50;99.90;;;;;;4932959;28;20789;-83
2021/08/07 12:29:32;;;;;;;2.75;2.55;;;23.60;99.90;;;;;;4933109;29;20405;-83
2021/08/07 12:32:04;;;;;;;1.75;1.48;;;23.60;99.90;;;;;;4933602;28;20047;-82
2021/08/07 12:34:35;;;;;;;2.33;2.13;;;23.70;99.90;;;;;;4932469;29;20066;-81
2021/08/07 12:37:09;;;;;;;1.60;1.48;;;23.60;99.90;;;;;;4932680;28;20595;-83
2021/08/07 12:39:41;;;;;;;2.25;2.08;;;23.60;99.90;;;;;;4932158;28;20047;-83
2021/08/07 12:42:14;;;;;;;2.75;2.00;;;23.80;99.90;;;;;;4932882;29;20051;-84
2021/08/07 12:44:42;;;;;;;2.22;1.98;;;23.80;99.90;;;;;;4932464;29;20043;-84
2021/08/07 12:47:11;;;;;;;2.30;2.10;;;23.90;99.90;;;;;;4900976;28;20051;-84
2021/08/07 12:49:43;;;;;;;2.85;1.85;;;23.90;99.90;;;;;;4917017;29;20048;-84
2021/08/07 12:52:16;;;;;;;2.95;2.00;;;23.90;99.90;;;;;;4931596;29;20078;-83
2021/08/07 12:55:06;;;;;;;2.15;1.95;;;23.70;99.90;;;;;;4933373;28;20051;-83
2021/08/07 12:57:40;;;;;;;2.67;2.47;;;23.70;99.90;;;;;;4931768;29;20056;-84
2021/08/07 13:00:11;;;;;;;4.10;2.42;;;23.70;99.90;;;;;;4932030;28;20402;-83
2021/08/07 13:02:39;;;;;;;2.70;1.80;;;23.80;99.90;;;;;;4933792;29;20067;-83
2021/08/07 13:05:08;;;;;;;2.58;2.38;;;23.90;99.90;;;;;;4933109;28;20051;-84
2021/08/07 13:07:39;;;;;;;2.50;2.30;;;24.00;99.90;;;;;;4931685;28;20047;-84
2021/08/07 13:10:29;;;;;;;2.65;1.98;;;24.00;99.90;;;;;;4933350;29;20043;-84
2021/08/07 13:12:58;;;;;;;2.67;2.20;;;24.10;99.90;;;;;;4933079;28;20544;-84